Time;durP1;ratioP1;P1;durP2;ratioP2;P2;SDS_P1;SDS_P2;PMS_P1;PMS_P2;Temp;Humidity;BMP_temperature;BMP_pressure;BME280_temperature;BME280_humidity;BME280_pressure;Samples;Min_cycle;Max_cycle;Signal;HPM_P1;HPM_P2
2022/07/30 00:00:37;;;;;;;;;;;23.10;49.70;;;;;;5103285;28;19924;-61
2022/07/30 00:03:05;;;;;;;;;;;23.10;49.80;;;;;;5093969;28;20023;-61
2022/07/30 00:05:33;;;;;;;;;;;23.10;49.80;;;;;;5107802;28;20031;-61
2022/07/30 00:07:59;;;;;;;;;;;23.10;49.80;;;;;;5110826;28;19919;-61
2022/07/30 00:10:26;;;;;;;;;;;23.10;49.80;;;;;;5093609;28;19926;-61
2022/07/30 00:12:53;;;;;;;;;;;23.10;49.80;;;;;;5124060;27;19924;-61
2022/07/30 00:15:19;;;;;;;;;;;23.10;49.80;;;;;;5104615;28;19973;-62
2022/07/30 00:17:46;;;;;;;;;;;23.10;49.80;;;;;;5102716;28;20022;-61
2022/07/30 00:20:14;;;;;;;;;;;23.10;49.80;;;;;;5101406;28;19993;-61
2022/07/30 00:22:41;;;;;;;;;;;23.10;49.80;;;;;;5105011;28;19946;-61
2022/07/30 00:25:08;;;;;;;;;;;23.10;50.00;;;;;;5101699;28;19923;-61
2022/07/30 00:27:35;;;;;;;;;;;23.10;50.10;;;;;;5102524;28;19969;-61
2022/07/30 00:30:01;;;;;;;;;;;23.10;50.30;;;;;;5100203;28;19924;-62
2022/07/30 00:32:28;;;;;;;;;;;23.10;50.50;;;;;;5101982;28;20022;-61
2022/07/30 00:34:55;;;;;;;;;;;23.10;50.70;;;;;;5103834;28;20023;-61
2022/07/30 00:37:23;;;;;;;;;;;23.10;50.90;;;;;;5098882;28;20011;-61
2022/07/30 00:39:50;;;;;;;;;;;23.10;51.00;;;;;;5112739;27;19927;-61
2022/07/30 00:42:24;;;;;;;;;;;23.10;51.00;;;;;;5101382;28;20311;-62
2022/07/30 00:44:51;;;;;;;;;;;23.10;51.00;;;;;;5117278;27;20351;-61
2022/07/30 00:47:18;;;;;;;;;;;23.10;51.00;;;;;;5100547;28;20040;-62
2022/07/30 00:49:44;;;;;;;;;;;23.10;51.00;;;;;;5102433;28;19920;-61
2022/07/30 00:52:11;;;;;;;;;;;23.10;51.10;;;;;;5107371;28;20292;-61
2022/07/30 00:54:39;;;;;;;;;;;23.10;51.10;;;;;;5108230;28;19941;-61
2022/07/30 00:57:06;;;;;;;;;;;23.10;51.10;;;;;;5091118;28;19924;-61
2022/07/30 00:59:33;;;;;;;;;;;23.10;51.10;;;;;;5110086;28;19944;-61
2022/07/30 01:02:00;;;;;;;;;;;23.10;51.10;;;;;;5103884;28;20353;-61
2022/07/30 01:04:27;;;;;;;;;;;23.10;51.20;;;;;;5103210;28;19920;-62
2022/07/30 01:06:54;;;;;;;;;;;23.10;51.20;;;;;;5103463;28;20356;-61
2022/07/30 01:09:21;;;;;;;;;;;23.10;51.20;;;;;;5108908;28;19966;-61
2022/07/30 01:11:49;;;;;;;;;;;23.10;51.20;;;;;;5100540;28;19924;-62
2022/07/30 01:14:15;;;;;;;;;;;23.10;51.20;;;;;;5110419;28;20007;-61
2022/07/30 01:16:42;;;;;;;;;;;23.10;51.20;;;;;;5094415;28;20391;-62
2022/07/30 01:22:00;;;;;;;;;;;23.10;51.20;;;;;;5109812;28;20415;-61
2022/07/30 01:24:28;;;;;;;;;;;23.10;51.20;;;;;;5105734;28;20047;-61
2022/07/30 01:26:56;;;;;;;;;;;23.10;51.20;;;;;;5107233;28;19932;-61
2022/07/30 01:29:23;;;;;;;;;;;23.10;51.20;;;;;;5109652;28;19923;-62
2022/07/30 01:31:50;;;;;;;;;;;23.10;51.20;;;;;;5098942;28;19920;-61
2022/07/30 01:34:16;;;;;;;;;;;23.10;51.20;;;;;;5089767;28;19920;-61
2022/07/30 01:36:43;;;;;;;;;;;23.10;51.20;;;;;;5101831;28;19982;-61
2022/07/30 01:39:10;;;;;;;;;;;23.10;51.30;;;;;;5101695;28;20377;-61
2022/07/30 01:41:37;;;;;;;;;;;23.10;51.30;;;;;;5099080;28;19923;-61
2022/07/30 01:44:05;;;;;;;;;;;23.10;51.30;;;;;;5108475;28;19924;-61
2022/07/30 01:46:31;;;;;;;;;;;23.10;51.30;;;;;;5110687;28;20035;-61
2022/07/30 01:48:58;;;;;;;;;;;23.10;51.20;;;;;;5109376;28;20434;-61
2022/07/30 01:51:28;;;;;;;;;;;23.10;51.20;;;;;;5103136;28;19932;-62
2022/07/30 01:53:54;;;;;;;;;;;23.10;51.20;;;;;;5109166;28;19931;-61
2022/07/30 01:56:21;;;;;;;;;;;23.00;51.20;;;;;;5094339;28;19924;-61
2022/07/30 01:58:48;;;;;;;;;;;23.10;51.20;;;;;;5089536;28;19920;-62
2022/07/30 02:01:19;;;;;;;;;;;23.10;51.20;;;;;;5093484;28;19943;-62
2022/07/30 02:03:45;;;;;;;;;;;23.10;51.30;;;;;;5104190;28;19920;-61
2022/07/30 02:06:13;;;;;;;;;;;23.10;51.20;;;;;;5095583;28;20368;-61
2022/07/30 02:08:40;;;;;;;;;;;23.10;51.20;;;;;;5090045;28;19970;-61
2022/07/30 02:11:07;;;;;;;;;;;23.10;51.20;;;;;;5103729;28;19926;-61
2022/07/30 02:13:34;;;;;;;;;;;23.10;51.30;;;;;;5113074;28;20390;-62
2022/07/30 02:16:03;;;;;;;;;;;23.10;51.30;;;;;;5101825;28;19920;-61
2022/07/30 02:18:33;;;;;;;;;;;23.10;51.30;;;;;;5093852;28;19920;-61
2022/07/30 02:21:00;;;;;;;;;;;23.10;51.30;;;;;;5100759;28;20352;-61
2022/07/30 02:23:27;;;;;;;;;;;23.10;51.30;;;;;;5112386;28;20022;-61
2022/07/30 02:25:53;;;;;;;;;;;23.10;51.30;;;;;;5113823;28;19924;-61
2022/07/30 02:28:20;;;;;;;;;;;23.10;51.30;;;;;;5113529;28;19919;-62
2022/07/30 02:30:48;;;;;;;;;;;23.10;51.30;;;;;;5103231;28;19920;-61
2022/07/30 02:33:15;;;;;;;;;;;23.00;51.20;;;;;;5112659;28;19977;-61
2022/07/30 02:35:43;;;;;;;;;;;23.10;51.30;;;;;;5107570;28;19920;-61
2022/07/30 02:38:10;;;;;;;;;;;23.10;51.30;;;;;;5099869;28;19920;-61
2022/07/30 02:40:37;;;;;;;;;;;23.10;51.30;;;;;;5100665;28;19921;-61
2022/07/30 02:43:04;;;;;;;;;;;23.10;51.30;;;;;;5111145;28;19962;-61
2022/07/30 02:45:31;;;;;;;;;;;23.10;51.30;;;;;;5101815;28;19931;-61
2022/07/30 02:47:59;;;;;;;;;;;23.10;51.30;;;;;;5108816;28;19920;-61
2022/07/30 02:50:26;;;;;;;;;;;23.10;51.30;;;;;;5113160;28;19976;-62
2022/07/30 02:52:54;;;;;;;;;;;23.10;51.30;;;;;;5096360;28;19920;-61
2022/07/30 02:55:21;;;;;;;;;;;23.10;51.30;;;;;;5092837;28;19927;-61
2022/07/30 02:57:48;;;;;;;;;;;23.10;51.30;;;;;;5075711;28;19920;-61
2022/07/30 03:00:15;;;;;;;;;;;23.10;51.30;;;;;;5107994;28;20383;-62
2022/07/30 03:02:42;;;;;;;;;;;23.10;51.30;;;;;;5111014;28;19919;-62
2022/07/30 03:05:09;;;;;;;;;;;23.10;51.30;;;;;;5111938;28;19951;-62
2022/07/30 03:07:36;;;;;;;;;;;23.10;51.40;;;;;;5108761;28;19965;-61
2022/07/30 03:10:04;;;;;;;;;;;23.10;51.40;;;;;;5112998;28;20407;-61
2022/07/30 03:12:31;;;;;;;;;;;23.10;51.40;;;;;;5111828;28;20021;-61
2022/07/30 03:14:58;;;;;;;;;;;23.10;51.50;;;;;;5111831;28;19932;-61
2022/07/30 03:17:26;;;;;;;;;;;23.00;51.40;;;;;;5109027;28;20249;-61
2022/07/30 03:19:53;;;;;;;;;;;23.10;51.50;;;;;;5095759;28;19920;-61
2022/07/30 03:22:20;;;;;;;;;;;23.10;51.50;;;;;;5093748;28;19931;-61
2022/07/30 03:24:46;;;;;;;;;;;23.10;51.50;;;;;;5107671;28;19920;-61
2022/07/30 03:27:14;;;;;;;;;;;23.10;51.60;;;;;;5103880;28;19919;-62
2022/07/30 03:29:41;;;;;;;;;;;23.10;51.60;;;;;;5109846;27;20073;-61
2022/07/30 03:32:08;;;;;;;;;;;23.10;51.60;;;;;;5102537;28;19920;-62
2022/07/30 03:34:34;;;;;;;;;;;23.10;51.60;;;;;;5106367;28;19935;-61
2022/07/30 03:37:01;;;;;;;;;;;23.10;51.70;;;;;;5094432;28;19942;-61
2022/07/30 03:39:28;;;;;;;;;;;23.10;51.60;;;;;;5111389;28;20129;-61
2022/07/30 03:41:55;;;;;;;;;;;23.00;51.50;;;;;;5110350;28;20399;-62
2022/07/30 03:44:23;;;;;;;;;;;23.10;51.70;;;;;;5111944;28;19931;-61
2022/07/30 03:46:50;;;;;;;;;;;23.10;51.70;;;;;;5097897;28;19920;-61
2022/07/30 03:49:17;;;;;;;;;;;23.00;51.50;;;;;;5103128;28;19942;-61
2022/07/30 03:51:45;;;;;;;;;;;23.10;51.60;;;;;;5111044;28;19946;-61
2022/07/30 03:54:11;;;;;;;;;;;23.10;51.70;;;;;;5113165;28;19920;-61
2022/07/30 03:56:38;;;;;;;;;;;23.10;51.70;;;;;;5112760;28;19963;-61
2022/07/30 03:59:05;;;;;;;;;;;23.00;51.70;;;;;;5106711;28;19970;-61
2022/07/30 04:01:33;;;;;;;;;;;23.00;51.70;;;;;;5106515;28;19920;-61
2022/07/30 04:04:06;;;;;;;;;;;23.00;51.70;;;;;;5111991;28;19919;-61
2022/07/30 04:06:38;;;;;;;;;;;23.00;51.70;;;;;;5104119;28;20327;-61
2022/07/30 04:09:05;;;;;;;;;;;23.00;51.70;;;;;;5103293;28;19920;-61
2022/07/30 04:11:32;;;;;;;;;;;23.00;51.70;;;;;;5107189;28;19928;-61
2022/07/30 04:13:58;;;;;;;;;;;23.00;51.70;;;;;;5110633;28;20337;-61
2022/07/30 04:16:25;;;;;;;;;;;23.00;51.70;;;;;;5106134;28;19924;-61
2022/07/30 04:18:53;;;;;;;;;;;23.00;51.70;;;;;;5091473;28;19930;-61
2022/07/30 04:21:21;;;;;;;;;;;23.00;51.80;;;;;;5103590;28;19942;-61
2022/07/30 04:23:47;;;;;;;;;;;23.00;51.70;;;;;;5093421;28;19920;-61
2022/07/30 04:26:14;;;;;;;;;;;23.00;51.70;;;;;;5100453;28;19920;-61
2022/07/30 04:28:41;;;;;;;;;;;23.00;51.70;;;;;;5105541;28;19926;-61
2022/07/30 04:31:08;;;;;;;;;;;23.00;51.70;;;;;;5108722;28;19924;-61
2022/07/30 04:33:34;;;;;;;;;;;23.00;51.70;;;;;;5092673;28;19926;-61
2022/07/30 04:36:07;;;;;;;;;;;23.00;51.70;;;;;;5106925;28;19973;-61
2022/07/30 04:38:33;;;;;;;;;;;23.00;51.70;;;;;;5091961;28;19955;-61
2022/07/30 04:41:00;;;;;;;;;;;23.00;51.70;;;;;;5106621;28;20338;-61
2022/07/30 04:43:27;;;;;;;;;;;23.00;51.80;;;;;;5090767;28;20236;-62
2022/07/30 04:45:54;;;;;;;;;;;23.00;51.80;;;;;;5090607;28;19973;-61
2022/07/30 04:48:21;;;;;;;;;;;23.00;51.80;;;;;;5090875;28;19920;-61
2022/07/30 04:50:49;;;;;;;;;;;23.00;51.80;;;;;;5101323;28;20452;-61
2022/07/30 04:53:18;;;;;;;;;;;23.00;51.80;;;;;;5097659;28;19919;-61
2022/07/30 04:55:45;;;;;;;;;;;22.90;51.70;;;;;;5103407;28;19927;-61
2022/07/30 04:58:12;;;;;;;;;;;23.00;51.80;;;;;;5109000;28;19969;-61
2022/07/30 05:00:39;;;;;;;;;;;23.00;51.80;;;;;;5107998;28;20356;-61
2022/07/30 05:03:05;;;;;;;;;;;23.00;51.80;;;;;;5108607;28;19920;-61
2022/07/30 05:05:32;;;;;;;;;;;23.00;52.40;;;;;;5109822;28;19920;-61
2022/07/30 05:07:59;;;;;;;;;;;22.90;51.70;;;;;;5091682;28;19928;-61
2022/07/30 05:10:28;;;;;;;;;;;22.90;51.70;;;;;;5102586;28;20383;-61
2022/07/30 05:12:55;;;;;;;;;;;22.90;51.70;;;;;;5098037;28;19962;-61
2022/07/30 05:15:22;;;;;;;;;;;22.90;51.70;;;;;;5108302;28;19926;-61
2022/07/30 05:17:48;;;;;;;;;;;22.90;51.70;;;;;;5098126;28;19958;-61
2022/07/30 05:20:15;;;;;;;;;;;22.90;51.70;;;;;;5105132;28;19965;-61
2022/07/30 05:22:42;;;;;;;;;;;22.90;51.60;;;;;;5089822;28;19931;-61
2022/07/30 05:25:09;;;;;;;;;;;22.90;52.20;;;;;;5090363;28;19935;-61
2022/07/30 05:27:38;;;;;;;;;;;22.90;51.60;;;;;;5120061;27;19970;-62
2022/07/30 05:30:05;;;;;;;;;;;22.90;51.60;;;;;;5110055;28;19920;-61
2022/07/30 05:32:31;;;;;;;;;;;23.00;51.70;;;;;;5111330;28;19920;-61
2022/07/30 05:34:58;;;;;;;;;;;22.90;51.60;;;;;;5098181;28;19931;-61
2022/07/30 05:37:25;;;;;;;;;;;22.90;51.60;;;;;;5091376;28;19920;-61
2022/07/30 05:39:52;;;;;;;;;;;22.90;51.60;;;;;;5105260;28;19920;-61
2022/07/30 05:42:18;;;;;;;;;;;22.90;51.60;;;;;;5110700;28;19926;-61
2022/07/30 05:44:47;;;;;;;;;;;22.90;51.60;;;;;;5111541;28;20002;-61
2022/07/30 05:47:13;;;;;;;;;;;22.90;51.60;;;;;;5110763;28;19946;-61
2022/07/30 05:49:40;;;;;;;;;;;23.00;51.60;;;;;;5113558;28;20041;-61
2022/07/30 05:52:07;;;;;;;;;;;22.90;51.50;;;;;;5110042;28;20242;-61
2022/07/30 05:54:34;;;;;;;;;;;22.90;51.50;;;;;;5111044;28;21248;-61
2022/07/30 05:57:00;;;;;;;;;;;23.00;51.50;;;;;;5106049;28;20376;-61
2022/07/30 05:59:27;;;;;;;;;;;22.90;51.50;;;;;;5109363;28;19970;-61
2022/07/30 06:01:55;;;;;;;;;;;23.00;51.50;;;;;;5107546;28;19946;-61
2022/07/30 06:04:22;;;;;;;;;;;22.90;51.50;;;;;;5102513;28;20389;-61
2022/07/30 06:06:49;;;;;;;;;;;22.90;51.50;;;;;;5104149;28;19928;-61
2022/07/30 06:09:15;;;;;;;;;;;22.90;51.60;;;;;;5105865;28;19924;-61
2022/07/30 06:11:42;;;;;;;;;;;22.90;51.60;;;;;;5103848;28;19966;-61
2022/07/30 06:14:09;;;;;;;;;;;23.00;51.70;;;;;;5109154;28;19958;-61
2022/07/30 06:16:36;;;;;;;;;;;22.90;51.60;;;;;;5101763;28;19931;-61
2022/07/30 06:19:04;;;;;;;;;;;22.90;51.60;;;;;;5121104;27;19920;-61
2022/07/30 06:21:30;;;;;;;;;;;22.90;51.60;;;;;;5104965;28;19935;-61
2022/07/30 06:23:57;;;;;;;;;;;22.90;51.60;;;;;;5107153;28;19919;-61
2022/07/30 06:26:24;;;;;;;;;;;22.90;51.70;;;;;;5103280;28;19919;-61
2022/07/30 06:28:51;;;;;;;;;;;22.90;51.70;;;;;;5112309;27;19939;-61
2022/07/30 06:31:18;;;;;;;;;;;22.90;51.70;;;;;;5107055;28;19932;-61
2022/07/30 06:33:44;;;;;;;;;;;22.90;51.70;;;;;;5105428;28;19931;-61
2022/07/30 06:36:13;;;;;;;;;;;22.90;51.70;;;;;;5106322;28;19920;-61
2022/07/30 06:38:39;;;;;;;;;;;22.90;51.70;;;;;;5108303;28;20306;-61
2022/07/30 06:41:06;;;;;;;;;;;23.00;51.80;;;;;;5106979;28;19920;-61
2022/07/30 06:43:33;;;;;;;;;;;23.00;51.70;;;;;;5106763;28;19920;-61
2022/07/30 06:46:00;;;;;;;;;;;22.90;51.60;;;;;;5106284;28;19920;-61
2022/07/30 06:48:26;;;;;;;;;;;23.00;51.60;;;;;;5105969;28;19926;-62
2022/07/30 06:50:53;;;;;;;;;;;22.90;51.60;;;;;;5106124;28;19941;-61
2022/07/30 06:53:21;;;;;;;;;;;23.00;51.60;;;;;;5103740;28;19927;-61
2022/07/30 06:55:49;;;;;;;;;;;23.00;51.60;;;;;;5110991;28;19977;-61
2022/07/30 06:58:16;;;;;;;;;;;23.00;51.50;;;;;;5102704;28;19924;-61
2022/07/30 07:00:43;;;;;;;;;;;22.90;51.40;;;;;;5107281;28;20361;-61
2022/07/30 07:03:10;;;;;;;;;;;23.00;51.50;;;;;;5109646;27;20411;-61
2022/07/30 07:05:37;;;;;;;;;;;22.90;51.40;;;;;;5107805;28;19920;-61
2022/07/30 07:08:04;;;;;;;;;;;22.90;51.40;;;;;;5106444;28;19927;-62
2022/07/30 07:10:32;;;;;;;;;;;23.00;51.50;;;;;;5104080;28;19932;-61
2022/07/30 07:12:59;;;;;;;;;;;23.00;51.40;;;;;;5106445;28;19926;-61
2022/07/30 07:15:26;;;;;;;;;;;22.90;51.40;;;;;;5104429;28;19920;-61
2022/07/30 07:17:52;;;;;;;;;;;22.90;51.40;;;;;;5107157;28;19931;-61
2022/07/30 07:20:19;;;;;;;;;;;23.00;51.40;;;;;;5104411;28;20433;-61
2022/07/30 07:22:46;;;;;;;;;;;23.00;51.40;;;;;;5106983;28;20028;-62
2022/07/30 07:25:13;;;;;;;;;;;23.00;51.40;;;;;;5105592;28;19919;-61
2022/07/30 07:27:41;;;;;;;;;;;23.00;51.40;;;;;;5105327;28;20250;-61
2022/07/30 07:30:08;;;;;;;;;;;23.00;51.40;;;;;;5107315;28;20003;-61
2022/07/30 07:32:35;;;;;;;;;;;23.00;51.40;;;;;;5105504;28;19920;-61
2022/07/30 07:35:02;;;;;;;;;;;23.00;51.40;;;;;;5103191;28;20389;-61
2022/07/30 07:37:29;;;;;;;;;;;23.00;51.40;;;;;;5100494;28;19923;-61
2022/07/30 07:39:56;;;;;;;;;;;23.00;51.80;;;;;;5105702;28;19951;-61
2022/07/30 07:42:22;;;;;;;;;;;23.00;51.50;;;;;;5101540;28;20026;-62
2022/07/30 07:44:50;;;;;;;;;;;23.00;51.50;;;;;;5104055;28;19963;-61
2022/07/30 07:47:17;;;;;;;;;;;23.00;51.50;;;;;;5107049;28;19923;-62
2022/07/30 07:49:44;;;;;;;;;;;23.00;51.50;;;;;;5104815;28;19919;-61
2022/07/30 07:52:11;;;;;;;;;;;23.00;51.50;;;;;;5105613;28;19927;-62
2022/07/30 07:54:38;;;;;;;;;;;23.00;51.50;;;;;;5106097;28;20250;-61
2022/07/30 07:57:06;;;;;;;;;;;23.00;51.50;;;;;;5104831;28;19920;-61
2022/07/30 07:59:33;;;;;;;;;;;23.10;51.70;;;;;;5103910;28;19935;-61
2022/07/30 08:02:01;;;;;;;;;;;23.00;51.60;;;;;;5102781;28;19965;-62
2022/07/30 08:04:28;;;;;;;;;;;23.00;51.60;;;;;;5102550;28;20361;-61
2022/07/30 08:06:54;;;;;;;;;;;23.00;51.60;;;;;;5103795;28;19921;-61
2022/07/30 08:09:21;;;;;;;;;;;23.00;51.60;;;;;;5102980;28;19927;-61
2022/07/30 08:11:48;;;;;;;;;;;23.00;51.70;;;;;;5103632;28;19920;-61
2022/07/30 08:14:15;;;;;;;;;;;23.00;51.70;;;;;;5102618;28;20011;-61
2022/07/30 08:16:41;;;;;;;;;;;23.00;51.70;;;;;;5102749;28;20118;-61
2022/07/30 08:19:10;;;;;;;;;;;23.10;51.80;;;;;;5104784;28;20022;-63
2022/07/30 08:21:37;;;;;;;;;;;23.00;51.70;;;;;;5087383;28;19985;-61
2022/07/30 08:24:04;;;;;;;;;;;23.00;51.70;;;;;;5100265;28;19958;-61
2022/07/30 08:26:31;;;;;;;;;;;23.10;51.80;;;;;;5102491;28;19927;-61
2022/07/30 08:28:58;;;;;;;;;;;23.00;51.70;;;;;;5101983;28;19927;-61
2022/07/30 08:31:24;;;;;;;;;;;23.10;51.80;;;;;;5101067;28;19927;-61
2022/07/30 08:33:51;;;;;;;;;;;23.00;51.70;;;;;;5101698;28;19981;-61
2022/07/30 08:36:19;;;;;;;;;;;23.00;51.70;;;;;;5102442;28;20362;-61
2022/07/30 08:38:46;;;;;;;;;;;23.00;51.70;;;;;;5104516;28;19923;-61
2022/07/30 08:41:13;;;;;;;;;;;23.10;51.80;;;;;;5106976;28;20375;-61
2022/07/30 08:43:40;;;;;;;;;;;23.00;51.70;;;;;;5098002;28;19927;-61
2022/07/30 08:46:08;;;;;;;;;;;23.10;51.80;;;;;;5101152;28;19939;-61
2022/07/30 08:48:35;;;;;;;;;;;23.00;51.70;;;;;;5103077;28;20006;-61
2022/07/30 08:51:02;;;;;;;;;;;23.00;51.70;;;;;;5110465;28;19927;-61
2022/07/30 08:53:30;;;;;;;;;;;23.10;51.80;;;;;;5107191;28;19936;-61
2022/07/30 08:55:57;;;;;;;;;;;23.00;51.70;;;;;;5108180;28;19981;-61
2022/07/30 08:58:29;;;;;;;;;;;23.10;51.80;;;;;;5102256;28;19973;-61
2022/07/30 09:00:56;;;;;;;;;;;23.00;51.60;;;;;;5105367;28;20024;-61
2022/07/30 09:03:23;;;;;;;;;;;23.10;51.80;;;;;;5110298;28;20322;-61
2022/07/30 09:05:50;;;;;;;;;;;23.10;51.70;;;;;;5109110;28;20426;-61
2022/07/30 09:08:17;;;;;;;;;;;23.00;51.70;;;;;;5102156;28;19920;-61
2022/07/30 09:10:45;;;;;;;;;;;23.10;51.70;;;;;;5090374;28;19927;-61
2022/07/30 09:13:24;;;;;;;;;;;23.10;51.80;;;;;;5107366;28;19977;-61
2022/07/30 09:15:51;;;;;;;;;;;23.10;51.70;;;;;;5100108;28;19920;-61
2022/07/30 09:18:25;;;;;;;;;;;23.10;51.80;;;;;;5107329;28;19923;-61
2022/07/30 09:20:52;;;;;;;;;;;23.10;51.80;;;;;;5105324;28;19969;-61
2022/07/30 09:23:19;;;;;;;;;;;23.10;51.70;;;;;;5098406;28;20311;-61
2022/07/30 09:25:47;;;;;;;;;;;23.10;51.70;;;;;;5110355;28;19973;-61
2022/07/30 09:28:14;;;;;;;;;;;23.10;51.70;;;;;;5106770;28;19928;-61
2022/07/30 09:30:44;;;;;;;;;;;23.10;51.70;;;;;;5099467;28;19927;-62
2022/07/30 09:33:13;;;;;;;;;;;23.10;51.60;;;;;;5103817;28;20130;-61
2022/07/30 09:35:40;;;;;;;;;;;23.10;52.20;;;;;;5100483;28;19924;-61
2022/07/30 09:38:07;;;;;;;;;;;23.10;51.60;;;;;;5102342;28;19924;-62
2022/07/30 09:40:34;;;;;;;;;;;23.10;51.60;;;;;;5108953;28;19924;-62
2022/07/30 09:43:03;;;;;;;;;;;23.10;51.60;;;;;;5105519;28;19920;-60
2022/07/30 09:45:30;;;;;;;;;;;23.10;51.50;;;;;;5107393;28;20445;-60
2022/07/30 09:47:56;;;;;;;;;;;23.10;51.60;;;;;;5094311;28;19920;-60
2022/07/30 09:50:23;;;;;;;;;;;23.10;51.60;;;;;;5102063;28;19950;-61
2022/07/30 09:52:50;;;;;;;;;;;23.10;51.70;;;;;;5107886;28;19984;-60
2022/07/30 09:55:31;;;;;;;;;;;23.10;51.70;;;;;;5109614;28;20004;-60
2022/07/30 09:57:58;;;;;;;;;;;23.10;51.70;;;;;;5096792;28;19920;-60
2022/07/30 10:00:27;;;;;;;;;;;23.10;51.80;;;;;;5099863;28;19975;-60
2022/07/30 10:02:53;;;;;;;;;;;23.10;51.80;;;;;;5106374;28;19965;-60
2022/07/30 10:05:20;;;;;;;;;;;23.10;52.00;;;;;;5104094;28;19928;-60
2022/07/30 10:07:47;;;;;;;;;;;23.10;52.20;;;;;;5108573;28;19979;-60
2022/07/30 10:10:14;;;;;;;;;;;23.20;52.60;;;;;;5115447;28;19924;-60
2022/07/30 10:12:41;;;;;;;;;;;23.10;52.80;;;;;;5106476;28;19930;-60
2022/07/30 10:15:08;;;;;;;;;;;23.10;53.10;;;;;;5105741;28;19927;-60
2022/07/30 10:17:37;;;;;;;;;;;23.10;53.10;;;;;;5107922;28;20517;-60
2022/07/30 10:20:04;;;;;;;;;;;23.20;53.20;;;;;;5107328;28;20018;-60
2022/07/30 10:22:31;;;;;;;;;;;23.20;53.10;;;;;;5118021;28;20360;-61
2022/07/30 10:24:58;;;;;;;;;;;23.10;53.00;;;;;;5105447;28;19965;-60
2022/07/30 10:27:24;;;;;;;;;;;23.10;52.90;;;;;;5101014;28;19920;-60
2022/07/30 10:29:51;;;;;;;;;;;23.20;53.10;;;;;;5103639;28;19957;-60
2022/07/30 10:32:18;;;;;;;;;;;23.10;52.90;;;;;;5104282;28;19924;-60
2022/07/30 10:34:46;;;;;;;;;;;23.10;52.80;;;;;;5105770;28;20311;-60
2022/07/30 10:37:14;;;;;;;;;;;23.20;52.90;;;;;;5111630;28;19919;-61
2022/07/30 10:39:43;;;;;;;;;;;23.10;52.70;;;;;;5111622;28;19924;-61
2022/07/30 10:42:13;;;;;;;;;;;23.20;52.80;;;;;;5111619;28;20346;-61
2022/07/30 10:44:57;;;;;;;;;;;23.20;52.80;;;;;;5127197;27;19969;-60
2022/07/30 10:47:25;;;;;;;;;;;23.20;52.90;;;;;;5127848;27;19919;-60
2022/07/30 10:50:06;;;;;;;;;;;23.20;53.00;;;;;;5113115;28;20010;-61
2022/07/30 10:52:43;;;;;;;;;;;23.20;53.10;;;;;;5111356;28;19920;-60
2022/07/30 10:55:12;;;;;;;;;;;23.20;53.00;;;;;;5111471;28;19973;-60
2022/07/30 10:57:41;;;;;;;;;;;23.20;53.00;;;;;;5104577;28;20265;-61
2022/07/30 11:00:09;;;;;;;;;;;23.20;53.10;;;;;;5110995;28;19967;-60
2022/07/30 11:02:36;;;;;;;;;;;23.20;53.10;;;;;;5110529;28;20365;-60
2022/07/30 11:05:24;;;;;;;;;;;23.20;53.10;;;;;;5110605;28;19923;-60
2022/07/30 11:07:52;;;;;;;;;;;23.20;53.10;;;;;;5111442;28;20318;-61
2022/07/30 11:10:33;;;;;;;;;;;23.20;52.90;;;;;;5118665;27;20010;-61
2022/07/30 11:13:00;;;;;;;;;;;23.20;52.90;;;;;;5109133;28;19920;-60
2022/07/30 11:15:50;;;;;;;;;;;23.20;52.90;;;;;;5107921;28;20268;-62
2022/07/30 11:18:17;;;;;;;;;;;23.20;52.80;;;;;;5111757;28;19924;-61
2022/07/30 11:20:44;;;;;;;;;;;23.20;52.80;;;;;;5111684;28;20037;-60
2022/07/30 11:23:33;;;;;;;;;;;23.20;52.80;;;;;;5110078;28;19924;-60
2022/07/30 11:25:59;;;;;;;;;;;23.20;52.80;;;;;;5106401;28;19923;-60
2022/07/30 11:28:37;;;;;;;;;;;23.20;52.80;;;;;;5111929;28;19932;-60
2022/07/30 11:31:03;;;;;;;;;;;23.20;52.80;;;;;;5102302;28;19924;-61
2022/07/30 11:33:30;;;;;;;;;;;23.20;52.80;;;;;;5104276;28;19920;-60
2022/07/30 11:36:07;;;;;;;;;;;23.20;52.90;;;;;;5108591;28;19931;-60
2022/07/30 11:38:52;;;;;;;;;;;23.20;52.80;;;;;;5112361;28;19928;-61
2022/07/30 11:41:20;;;;;;;;;;;23.20;52.70;;;;;;5110459;28;19965;-60
2022/07/30 11:43:47;;;;;;;;;;;23.20;52.70;;;;;;5110248;28;19951;-60
2022/07/30 11:46:16;;;;;;;;;;;23.20;52.70;;;;;;5110632;28;19969;-61
2022/07/30 11:48:54;;;;;;;;;;;23.20;52.70;;;;;;5112925;28;19920;-61
2022/07/30 11:51:21;;;;;;;;;;;23.20;52.70;;;;;;5102694;28;20284;-60
2022/07/30 11:53:59;;;;;;;;;;;23.20;52.70;;;;;;5112205;28;20292;-61
2022/07/30 11:56:27;;;;;;;;;;;23.30;52.80;;;;;;5110275;28;19977;-60
2022/07/30 11:59:00;;;;;;;;;;;23.20;52.60;;;;;;5102715;28;19969;-61
2022/07/30 12:01:26;;;;;;;;;;;23.20;52.60;;;;;;5106157;28;19923;-60
2022/07/30 12:03:53;;;;;;;;;;;23.30;52.60;;;;;;5109271;28;19920;-61
2022/07/30 12:06:20;;;;;;;;;;;23.20;52.50;;;;;;5107215;27;19963;-61
2022/07/30 12:08:47;;;;;;;;;;;23.30;52.70;;;;;;5110831;28;20257;-60
2022/07/30 12:11:14;;;;;;;;;;;23.30;52.70;;;;;;5111513;28;19938;-60
2022/07/30 12:13:43;;;;;;;;;;;23.30;52.70;;;;;;5109666;28;21476;-61
2022/07/30 12:16:10;;;;;;;;;;;23.30;52.70;;;;;;5102295;28;20018;-60
2022/07/30 12:18:37;;;;;;;;;;;23.30;52.60;;;;;;5110615;28;20166;-61
2022/07/30 12:21:06;;;;;;;;;;;23.30;52.60;;;;;;5103814;28;19927;-61
2022/07/30 12:23:33;;;;;;;;;;;23.30;52.70;;;;;;5109016;28;20387;-61
2022/07/30 12:26:00;;;;;;;;;;;23.30;52.60;;;;;;5106315;28;19920;-60
2022/07/30 12:28:28;;;;;;;;;;;23.30;52.60;;;;;;5090980;28;19924;-61
2022/07/30 12:30:56;;;;;;;;;;;23.30;52.60;;;;;;5097846;28;19920;-61
2022/07/30 12:33:22;;;;;;;;;;;23.30;52.60;;;;;;5100331;28;19928;-61
2022/07/30 12:35:50;;;;;;;;;;;23.30;52.50;;;;;;5117944;27;19936;-61
2022/07/30 12:38:17;;;;;;;;;;;23.30;52.60;;;;;;5105503;28;19946;-60
2022/07/30 12:40:53;;;;;;;;;;;23.30;52.60;;;;;;5107016;28;19930;-61
2022/07/30 12:43:35;;;;;;;;;;;23.30;52.60;;;;;;5105561;28;19924;-61
2022/07/30 12:46:04;;;;;;;;;;;23.40;52.60;;;;;;5121228;27;19984;-61
2022/07/30 12:48:30;;;;;;;;;;;23.30;52.40;;;;;;5103510;28;19932;-61
2022/07/30 12:51:03;;;;;;;;;;;23.30;52.40;;;;;;5104902;28;20345;-61
2022/07/30 12:53:30;;;;;;;;;;;23.30;52.30;;;;;;5104845;28;20265;-61
2022/07/30 12:56:09;;;;;;;;;;;23.30;52.30;;;;;;5103113;28;19959;-61
2022/07/30 12:58:36;;;;;;;;;;;23.30;52.30;;;;;;5102843;28;19920;-61
2022/07/30 13:01:04;;;;;;;;;;;23.30;52.20;;;;;;5104978;28;20077;-60
2022/07/30 13:03:38;;;;;;;;;;;23.30;52.20;;;;;;5105918;28;19926;-61
2022/07/30 13:06:11;;;;;;;;;;;23.30;52.30;;;;;;5102068;28;19920;-61
2022/07/30 13:08:48;;;;;;;;;;;23.30;52.30;;;;;;5103913;28;19973;-61
2022/07/30 13:11:14;;;;;;;;;;;23.30;52.20;;;;;;5099778;28;19973;-61
2022/07/30 13:13:41;;;;;;;;;;;23.30;52.20;;;;;;5104153;28;19924;-61
2022/07/30 13:16:09;;;;;;;;;;;23.40;52.20;;;;;;5102280;28;19920;-61
2022/07/30 13:18:36;;;;;;;;;;;23.40;52.20;;;;;;5099142;28;20404;-61
2022/07/30 13:21:03;;;;;;;;;;;23.30;52.10;;;;;;5103968;28;19963;-61
2022/07/30 13:23:29;;;;;;;;;;;23.30;52.10;;;;;;5103832;28;19920;-61
2022/07/30 13:25:56;;;;;;;;;;;23.30;52.20;;;;;;5101252;28;19920;-61
2022/07/30 13:28:23;;;;;;;;;;;23.30;52.20;;;;;;5105191;28;20022;-61
2022/07/30 13:30:50;;;;;;;;;;;23.30;52.20;;;;;;5101357;28;19973;-60
2022/07/30 13:33:19;;;;;;;;;;;23.40;52.20;;;;;;5106220;28;20300;-61
2022/07/30 13:35:45;;;;;;;;;;;23.40;52.30;;;;;;5103770;28;19969;-61
2022/07/30 13:38:12;;;;;;;;;;;23.40;52.30;;;;;;5104737;28;19965;-60
2022/07/30 13:40:40;;;;;;;;;;;23.40;52.20;;;;;;5106253;28;19920;-61
2022/07/30 13:43:06;;;;;;;;;;;23.40;52.20;;;;;;5107457;28;20015;-61
2022/07/30 13:45:34;;;;;;;;;;;23.40;52.20;;;;;;5105811;28;19924;-61
2022/07/30 13:48:01;;;;;;;;;;;23.40;52.30;;;;;;5103480;28;20326;-61
2022/07/30 13:50:29;;;;;;;;;;;23.40;52.30;;;;;;5103817;28;19977;-61
2022/07/30 13:52:56;;;;;;;;;;;23.40;52.30;;;;;;5103416;28;19935;-62
2022/07/30 13:55:22;;;;;;;;;;;23.40;52.30;;;;;;5100972;28;19988;-61
2022/07/30 13:57:49;;;;;;;;;;;23.40;52.30;;;;;;5104120;28;19988;-61
2022/07/30 14:00:16;;;;;;;;;;;23.40;52.30;;;;;;5105274;28;19920;-61
2022/07/30 14:02:43;;;;;;;;;;;23.40;52.40;;;;;;5106780;28;19932;-61
2022/07/30 14:05:10;;;;;;;;;;;23.40;52.40;;;;;;5122208;28;19927;-61
2022/07/30 14:07:39;;;;;;;;;;;23.40;52.40;;;;;;5105237;28;19972;-62
2022/07/30 14:10:06;;;;;;;;;;;23.40;52.30;;;;;;5106957;28;20260;-62
2022/07/30 14:12:33;;;;;;;;;;;23.40;52.20;;;;;;5106670;28;19927;-62
2022/07/30 14:15:00;;;;;;;;;;;23.40;52.00;;;;;;5109664;28;20047;-62
2022/07/30 14:17:26;;;;;;;;;;;23.40;51.90;;;;;;5103417;28;19928;-62
2022/07/30 14:19:53;;;;;;;;;;;23.50;51.90;;;;;;5103433;28;19932;-63
2022/07/30 14:22:20;;;;;;;;;;;23.50;51.90;;;;;;5104456;28;19962;-64